Time;durP1;ratioP1;P1;durP2;ratioP2;P2;SDS_P1;SDS_P2;PMS_P1;PMS_P2;Temp;Humidity;BMP_temperature;BMP_pressure;BME280_temperature;BME280_humidity;BME280_pressure;Samples;Min_cycle;Max_cycle;Signal;HPM_P1;HPM_P2
2022/01/26 00:07:31;;;;;;;97.53;28.33;;;-0.10;99.90;;;;;;4999623;28;20220;-82
2022/01/26 00:09:57;;;;;;;117.63;33.67;;;-0.20;99.90;;;;;;5002467;28;20203;-83
2022/01/26 00:12:22;;;;;;;108.73;31.57;;;-0.30;99.90;;;;;;5006353;28;20190;-81
2022/01/26 00:14:48;;;;;;;123.13;34.77;;;-0.30;99.90;;;;;;5006334;28;20189;-85
2022/01/26 00:17:14;;;;;;;163.70;38.27;;;;;;;;;;5006383;28;20258;-83
2022/01/26 00:19:55;;;;;;;220.57;35.72;;;;;;;;;;4999090;28;20212;-85
2022/01/26 00:22:54;;;;;;;186.75;38.38;;;-0.40;99.90;;;;;;4997587;28;20380;-81
2022/01/26 00:38:46;;;;;;;97.00;32.30;;;-0.10;99.90;;;;;;5000434;28;20203;-82
2022/01/26 00:41:19;;;;;;;117.07;32.33;;;0.00;99.90;;;;;;5002386;28;22387;-84
2022/01/26 00:43:54;;;;;;;101.82;30.77;;;0.00;99.90;;;;;;5019742;28;20186;-85
2022/01/26 00:46:21;;;;;;;110.53;31.77;;;0.00;99.90;;;;;;5002816;28;20200;-84
2022/01/26 00:48:47;;;;;;;112.95;33.20;;;0.00;99.90;;;;;;5006417;28;20205;-82
2022/01/26 00:51:18;;;;;;;135.15;33.80;;;0.00;99.90;;;;;;5003629;28;20189;-83
2022/01/26 00:53:47;;;;;;;100.97;31.85;;;;;;;;;;5004966;28;20198;-83
2022/01/26 00:56:14;;;;;;;115.88;31.88;;;0.00;99.90;;;;;;5016659;28;20248;-82
2022/01/26 00:58:40;;;;;;;101.85;30.20;;;-0.10;99.90;;;;;;5015309;28;20186;-84
2022/01/26 01:01:06;;;;;;;94.47;28.30;;;;;;;;;;5005929;28;20191;-84
2022/01/26 01:03:35;;;;;;;77.63;28.95;;;-0.20;99.90;;;;;;5008032;28;20810;-83
2022/01/26 01:06:07;;;;;;;77.88;27.25;;;;;;;;;;5004243;28;20854;-84
2022/01/26 01:08:33;;;;;;;89.40;28.50;;;-0.20;99.90;;;;;;4996607;28;20264;-82
2022/01/26 01:10:59;;;;;;;81.93;27.98;;;;;;;;;;5000809;28;20186;-85
2022/01/26 01:13:36;;;;;;;68.07;26.90;;;0.00;99.90;;;;;;5018991;28;20175;-83
2022/01/26 01:16:04;;;;;;;81.10;25.52;;;-0.10;99.90;;;;;;5006507;28;20551;-84
2022/01/26 01:18:43;;;;;;;88.28;26.38;;;-0.20;99.90;;;;;;5004562;28;20274;-85
2022/01/26 01:29:15;;;;;;;78.07;25.65;;;-0.40;99.90;;;;;;5008502;28;20682;-81
2022/01/26 01:31:51;;;;;;;60.15;19.67;;;-0.40;99.90;;;;;;5009220;28;20189;-81
2022/01/26 01:34:25;;;;;;;75.55;24.88;;;-0.50;99.90;;;;;;5008663;28;20197;-84
2022/01/26 01:36:52;;;;;;;52.78;17.48;;;-0.50;99.90;;;;;;5006400;28;20206;-84
2022/01/26 01:39:19;;;;;;;53.42;22.65;;;-0.50;99.90;;;;;;5017752;28;20185;-83
2022/01/26 01:41:46;;;;;;;64.85;22.95;;;-0.50;99.90;;;;;;5013155;28;20194;-84
2022/01/26 01:44:13;;;;;;;65.85;22.05;;;-0.50;99.90;;;;;;5009814;28;20190;-82
2022/01/26 01:46:41;;;;;;;72.88;22.42;;;-0.50;99.90;;;;;;5008663;28;20217;-84
2022/01/26 01:49:07;;;;;;;68.57;23.55;;;;;;;;;;5007665;28;20210;-84
2022/01/26 01:51:37;;;;;;;88.35;26.98;;;-0.60;99.90;;;;;;5006977;28;20230;-82
2022/01/26 01:54:04;;;;;;;81.93;26.73;;;-0.50;99.90;;;;;;5008209;28;20179;-83
2022/01/26 01:56:29;;;;;;;66.15;23.60;;;-1.10;99.90;;;;;;5008853;28;20251;-82
2022/01/26 01:58:58;;;;;;;74.17;24.07;;;-0.50;99.90;;;;;;5004937;28;20250;-82
2022/01/26 02:01:24;;;;;;;82.43;25.92;;;-0.50;99.90;;;;;;5006102;28;20215;-83
2022/01/26 02:03:50;;;;;;;84.63;24.13;;;;;;;;;;5005813;28;20206;-83
2022/01/26 02:06:16;;;;;;;81.57;25.65;;;-0.40;99.90;;;;;;5005431;28;20193;-85
2022/01/26 02:08:42;;;;;;;87.43;24.33;;;;;;;;;;5006557;28;20210;-85
2022/01/26 02:11:10;;;;;;;105.47;24.48;;;-0.40;99.90;;;;;;5009807;28;20178;-82
2022/01/26 02:14:25;;;;;;;85.13;26.50;;;-0.30;99.90;;;;;;5003262;28;20197;-83
2022/01/26 02:19:47;;;;;;;84.63;23.73;;;;;;;;;;5016932;28;20641;-83
2022/01/26 02:49:11;;;;;;;66.65;23.90;;;-0.30;99.90;;;;;;5004207;28;20273;-84
2022/01/26 02:49:34;;;;;;;92.40;26.60;;;-0.50;99.90;;;;;;5009253;28;20658;-81
2022/01/26 02:52:15;;;;;;;73.45;22.35;;;-0.50;99.90;;;;;;5009949;28;20634;-82
2022/01/26 02:54:53;;;;;;;91.20;21.85;;;-0.40;99.90;;;;;;5007849;28;20246;-83
2022/01/26 03:04:58;;;;;;;192.52;32.08;;;-0.30;99.90;;;;;;5009251;28;20163;-83
2022/01/26 03:07:40;;;;;;;206.65;35.10;;;-0.30;99.90;;;;;;5006309;28;20966;-84
2022/01/26 03:10:17;;;;;;;74.50;22.30;;;-0.30;99.90;;;;;;5010862;28;20221;-84
2022/01/26 03:12:57;;;;;;;81.82;22.73;;;-0.40;99.90;;;;;;5000560;28;20193;-81
2022/01/26 03:15:32;;;;;;;94.82;24.05;;;-0.40;99.90;;;;;;4999936;28;20186;-84
2022/01/26 03:20:44;;;;;;;90.63;26.77;;;-0.50;99.90;;;;;;5006630;28;20185;-84
2022/01/26 03:28:57;;;;;;;82.63;23.15;;;-0.40;99.90;;;;;;5005123;28;20711;-83
2022/01/26 03:32:17;;;;;;;83.32;24.17;;;-0.40;99.90;;;;;;5008723;28;20182;-84
2022/01/26 03:34:27;;;;;;;112.45;25.17;;;-0.50;99.90;;;;;;5005593;28;20259;-85
2022/01/26 03:36:59;;;;;;;81.10;21.50;;;-0.50;99.90;;;;;;5021202;28;20214;-81
2022/01/26 03:39:26;;;;;;;90.38;25.63;;;-0.50;99.90;;;;;;5025314;28;20252;-85
2022/01/26 03:42:04;;;;;;;76.03;21.75;;;-0.50;99.90;;;;;;5012399;28;20247;-83
2022/01/26 03:44:30;;;;;;;87.45;25.35;;;-0.50;99.90;;;;;;5015839;28;20171;-81
2022/01/26 03:46:56;;;;;;;97.03;25.27;;;;;;;;;;5029148;28;20221;-82
2022/01/26 03:49:22;;;;;;;105.70;25.47;;;;;;;;;;5012001;28;20465;-85
2022/01/26 03:51:48;;;;;;;122.77;23.83;;;;;;;;;;5008580;28;20437;-85
2022/01/26 03:54:15;;;;;;;125.53;28.50;;;;;;;;;;5008070;28;20425;-88
2022/01/26 03:56:41;;;;;;;118.78;24.88;;;-0.20;99.90;;;;;;5005847;28;20462;-84
2022/01/26 03:59:07;;;;;;;105.20;25.10;;;;;;;;;;5003672;28;20182;-85
2022/01/26 04:01:33;;;;;;;148.23;30.13;;;-0.20;99.90;;;;;;5007943;28;20179;-82
2022/01/26 04:03:59;;;;;;;116.20;27.17;;;-0.20;99.90;;;;;;5008448;28;20197;-84
2022/01/26 04:06:25;;;;;;;83.83;24.50;;;;;;;;;;5000830;28;20506;-84
2022/01/26 04:08:51;;;;;;;100.85;27.30;;;;;;;;;;5015203;28;20210;-82
2022/01/26 04:13:46;;;;;;;80.38;23.55;;;;;;;;;;5006044;28;20182;-85
2022/01/26 04:16:12;;;;;;;76.35;20.55;;;-0.30;99.90;;;;;;5008132;28;20239;-85
2022/01/26 04:18:40;;;;;;;88.47;25.03;;;-0.30;99.90;;;;;;5001224;28;20210;-85
2022/01/26 04:23:51;;;;;;;89.20;24.85;;;-0.40;99.90;;;;;;5009471;28;20209;-83
2022/01/26 04:26:21;;;;;;;80.93;23.77;;;-0.30;99.90;;;;;;5005329;28;20174;-83
2022/01/26 04:28:56;;;;;;;82.35;22.23;;;-0.40;99.90;;;;;;5002664;28;20263;-80
2022/01/26 04:31:22;;;;;;;96.57;25.50;;;-0.40;99.90;;;;;;4997799;28;20220;-82
2022/01/26 04:33:48;;;;;;;75.63;24.38;;;-0.50;99.90;;;;;;5024939;28;20201;-81
2022/01/26 04:36:20;;;;;;;106.15;25.58;;;;;;;;;;5012653;28;20179;-84
2022/01/26 04:38:52;;;;;;;88.85;24.80;;;;;;;;;;5005446;28;20174;-85
2022/01/26 04:43:56;;;;;;;76.65;20.65;;;-0.40;99.90;;;;;;5002252;28;20174;-83
2022/01/26 04:46:24;;;;;;;76.18;22.48;;;-0.40;99.90;;;;;;5018303;28;20235;-84
2022/01/26 04:48:50;;;;;;;83.90;24.80;;;-0.40;99.90;;;;;;5001719;28;20338;-85
2022/01/26 04:51:16;;;;;;;96.85;26.45;;;-0.30;99.90;;;;;;5007737;28;20265;-84
2022/01/26 04:53:42;;;;;;;66.37;19.60;;;;;;;;;;4998182;28;20713;-84
2022/01/26 04:56:08;;;;;;;93.65;24.13;;;;;;;;;;5011754;28;20163;-81
2022/01/26 04:58:33;;;;;;;95.70;23.65;;;-0.30;99.90;;;;;;5008343;28;20221;-82
2022/01/26 05:00:59;;;;;;;90.40;24.10;;;;;;;;;;5006340;28;20202;-85
2022/01/26 05:03:25;;;;;;;89.87;25.03;;;-0.20;99.90;;;;;;5000063;28;20178;-85
2022/01/26 05:05:50;;;;;;;88.73;25.83;;;-0.30;99.90;;;;;;5006235;28;21024;-85
2022/01/26 05:08:16;;;;;;;83.70;24.63;;;;;;;;;;5003706;28;20218;-85
2022/01/26 05:10:43;;;;;;;79.57;24.90;;;-0.20;99.90;;;;;;4997200;28;20350;-86
2022/01/26 05:13:11;;;;;;;75.82;26.15;;;-0.20;99.90;;;;;;4999423;28;20552;-85
2022/01/26 05:15:37;;;;;;;87.15;24.98;;;;;;;;;;4998620;28;20193;-84
2022/01/26 05:18:05;;;;;;;93.57;22.97;;;;;;;;;;5000924;28;20206;-82
2022/01/26 05:20:32;;;;;;;121.43;32.20;;;;;;;;;;5014420;28;20427;-84
2022/01/26 05:22:58;;;;;;;97.40;28.83;;;-0.20;99.90;;;;;;5008962;28;20190;-85
2022/01/26 05:25:24;;;;;;;127.00;30.10;;;;;;;;;;5004260;28;20209;-83
2022/01/26 05:27:50;;;;;;;87.65;27.85;;;-0.20;99.90;;;;;;5016374;28;20293;-83
2022/01/26 05:30:15;;;;;;;102.40;27.03;;;;;;;;;;5001937;28;20275;-82
2022/01/26 05:32:41;;;;;;;79.80;25.38;;;-0.20;99.90;;;;;;4994832;28;20190;-84
2022/01/26 05:35:07;;;;;;;85.30;23.70;;;-0.20;99.90;;;;;;4995535;28;20190;-83
2022/01/26 05:37:33;;;;;;;101.57;25.55;;;;;;;;;;4992990;28;20600;-82
2022/01/26 05:39:59;;;;;;;61.55;21.80;;;-0.20;99.90;;;;;;4997521;28;20190;-83
2022/01/26 05:42:25;;;;;;;78.30;21.50;;;-1.50;99.90;;;;;;4991888;28;20219;-83
2022/01/26 05:44:53;;;;;;;67.17;23.93;;;;;;;;;;4989683;28;20520;-84
2022/01/26 05:47:20;;;;;;;69.22;22.73;;;-0.30;99.90;;;;;;5005872;28;20469;-84
2022/01/26 05:49:46;;;;;;;89.75;23.88;;;-0.30;99.90;;;;;;4998823;28;20729;-81
2022/01/26 05:52:12;;;;;;;59.22;20.77;;;0.50;99.90;;;;;;4995353;28;20179;-84
2022/01/26 05:54:38;;;;;;;73.37;23.40;;;;;;;;;;4995753;28;20265;-84
2022/01/26 05:57:04;;;;;;;69.35;21.95;;;-0.40;99.90;;;;;;4998624;28;20290;-84
2022/01/26 05:59:32;;;;;;;73.07;19.57;;;;;;;;;;4996498;28;20269;-84
2022/01/26 06:01:58;;;;;;;79.93;23.92;;;-0.30;99.90;;;;;;5001181;28;20433;-85
2022/01/26 06:04:24;;;;;;;67.83;24.00;;;;;;;;;;5007772;28;20182;-84
2022/01/26 06:06:50;;;;;;;77.68;21.65;;;-0.40;99.90;;;;;;4999392;28;20495;-83
2022/01/26 06:09:16;;;;;;;78.20;22.43;;;;;;;;;;5007797;28;20234;-84
2022/01/26 06:11:41;;;;;;;65.45;22.05;;;-0.30;99.90;;;;;;5012176;28;20551;-83
2022/01/26 06:14:07;;;;;;;59.60;21.47;;;-0.40;99.90;;;;;;5008944;28;20187;-83
2022/01/26 06:16:32;;;;;;;62.57;20.80;;;-0.40;99.90;;;;;;5017422;28;20337;-80
2022/01/26 06:18:58;;;;;;;49.47;16.53;;;0.80;99.90;;;;;;5014772;28;20305;-81
2022/01/26 06:21:24;;;;;;;48.23;16.40;;;;;;;;;;5004426;28;20245;-81
2022/01/26 06:23:50;;;;;;;66.57;20.07;;;;;;;;;;5008271;28;20194;-84
2022/01/26 06:26:16;;;;;;;56.25;21.45;;;;;;;;;;4998980;28;20433;-85
2022/01/26 06:28:41;;;;;;;57.97;21.05;;;-0.40;99.90;;;;;;4992470;28;20194;-86
2022/01/26 06:31:11;;;;;;;53.67;21.57;;;-0.40;99.90;;;;;;5007700;28;20243;-83
2022/01/26 06:33:41;;;;;;;57.95;18.45;;;-0.40;99.90;;;;;;5005644;28;20163;-84
2022/01/26 06:36:09;;;;;;;59.53;20.88;;;-0.40;99.90;;;;;;5006891;28;20179;-85
2022/01/26 06:38:35;;;;;;;59.33;18.83;;;-0.40;99.90;;;;;;4991269;28;20198;-81
2022/01/26 06:41:01;;;;;;;67.83;18.87;;;-0.40;99.90;;;;;;5008616;28;20723;-82
2022/01/26 06:43:30;;;;;;;73.38;23.02;;;;;;;;;;5003251;28;20592;-84
2022/01/26 06:46:07;;;;;;;71.50;23.08;;;-0.40;99.90;;;;;;5005100;28;20179;-83
2022/01/26 06:48:57;;;;;;;64.07;20.20;;;-0.40;99.90;;;;;;5004301;28;20212;-83
2022/01/26 06:51:23;;;;;;;71.93;21.63;;;-0.40;99.90;;;;;;5001396;28;20206;-83
2022/01/26 06:53:48;;;;;;;58.07;19.53;;;-0.50;99.90;;;;;;5009940;28;20190;-84
2022/01/26 06:56:14;;;;;;;61.17;18.43;;;-0.60;99.90;;;;;;5001048;28;20182;-83
2022/01/26 06:58:40;;;;;;;61.13;21.17;;;;;;;;;;5015581;28;20231;-82
2022/01/26 07:01:05;;;;;;;54.78;19.48;;;-0.60;99.90;;;;;;5005835;28;20186;-85
2022/01/26 07:03:31;;;;;;;109.37;26.07;;;-0.50;99.90;;;;;;4990581;28;20961;-85
2022/01/26 07:05:57;;;;;;;91.90;24.60;;;;;;;;;;4989108;28;20186;-83
2022/01/26 07:08:23;;;;;;;79.47;25.27;;;;;;;;;;4995784;28;20686;-84
2022/01/26 07:10:51;;;;;;;60.30;20.27;;;-0.50;99.90;;;;;;4993045;28;20175;-83
2022/01/26 07:13:17;;;;;;;88.28;24.60;;;-0.70;99.90;;;;;;4992061;28;20449;-82
2022/01/26 07:23:39;;;;;;;87.07;22.93;;;-0.60;99.90;;;;;;4997017;28;20190;-82
2022/01/26 07:26:07;;;;;;;58.65;20.50;;;-0.70;99.90;;;;;;5001575;28;20182;-85
2022/01/26 07:28:37;;;;;;;88.93;24.75;;;;;;;;;;4998560;28;20247;-83
2022/01/26 07:31:04;;;;;;;70.82;22.13;;;-0.70;99.90;;;;;;4994023;28;20265;-84
2022/01/26 07:33:30;;;;;;;68.30;20.73;;;;;;;;;;5001951;28;20210;-83
2022/01/26 07:36:00;;;;;;;37.30;13.05;;;-0.80;99.90;;;;;;5002551;28;20176;-81
2022/01/26 07:38:26;;;;;;;87.40;24.02;;;;;;;;;;5022422;28;20210;-85
2022/01/26 07:40:53;;;;;;;71.90;20.83;;;;;;;;;;4999365;28;20186;-82
2022/01/26 07:43:19;;;;;;;81.68;22.52;;;;;;;;;;4995155;28;20187;-83
2022/01/26 07:45:47;;;;;;;85.03;24.23;;;;;;;;;;5000103;28;20223;-84
2022/01/26 07:48:13;;;;;;;55.58;18.98;;;;;;;;;;5004194;28;20472;-84
2022/01/26 07:50:39;;;;;;;70.93;22.17;;;;;;;;;;4997189;28;21493;-85
2022/01/26 07:53:15;;;;;;;66.00;21.27;;;;;;;;;;4995986;28;20198;-83
2022/01/26 07:55:41;;;;;;;73.72;25.83;;;;;;;;;;4996696;28;20174;-84
2022/01/26 07:58:13;;;;;;;51.47;16.63;;;;;;;;;;4997522;28;20231;-83
2022/01/26 08:00:39;;;;;;;53.17;16.75;;;;;;;;;;4989953;28;20830;-83
2022/01/26 08:03:07;;;;;;;68.15;21.80;;;-0.90;99.90;;;;;;4994009;28;20190;-81
2022/01/26 08:05:39;;;;;;;52.15;18.23;;;;;;;;;;4992798;28;20211;-82
2022/01/26 08:08:08;;;;;;;46.38;17.50;;;;;;;;;;4988579;28;20207;-81
2022/01/26 08:10:34;;;;;;;70.70;21.73;;;;;;;;;;5000773;28;20210;-83
2022/01/26 08:13:00;;;;;;;51.28;17.83;;;;;;;;;;4990263;28;20190;-84
2022/01/26 08:15:26;;;;;;;43.47;14.80;;;;;;;;;;4996729;28;20179;-82
2022/01/26 08:17:56;;;;;;;70.90;23.23;;;-1.00;99.90;;;;;;4995454;28;20468;-83
2022/01/26 08:20:22;;;;;;;62.83;19.65;;;;;;;;;;5000009;28;20179;-83
2022/01/26 08:22:49;;;;;;;52.88;17.52;;;;;;;;;;4997744;28;20918;-82
2022/01/26 08:25:15;;;;;;;63.35;18.73;;;;;;;;;;5001579;28;20175;-83
2022/01/26 08:27:46;;;;;;;71.50;19.83;;;-1.00;99.90;;;;;;5003130;28;20933;-83
2022/01/26 08:30:15;;;;;;;54.80;19.33;;;-1.10;99.90;;;;;;5019257;28;20198;-82
2022/01/26 08:32:42;;;;;;;48.03;19.00;;;-1.00;99.90;;;;;;5014601;28;20238;-83
2022/01/26 08:35:08;;;;;;;57.38;20.83;;;-1.00;99.90;;;;;;5004379;28;20179;-82
2022/01/26 08:37:34;;;;;;;58.33;20.42;;;;;;;;;;5018145;27;20247;-83
2022/01/26 08:40:00;;;;;;;59.83;19.08;;;-0.90;99.90;;;;;;4993115;28;20190;-84
2022/01/26 08:42:26;;;;;;;62.80;22.30;;;;;;;;;;4996013;28;20190;-83
2022/01/26 08:44:52;;;;;;;61.47;21.80;;;;;;;;;;5015753;28;20182;-85
2022/01/26 08:47:18;;;;;;;68.30;21.65;;;;;;;;;;4997624;28;20252;-83
2022/01/26 08:49:46;;;;;;;54.80;19.80;;;-0.80;99.90;;;;;;4977063;28;20271;-81
2022/01/26 08:52:12;;;;;;;50.30;18.30;;;-0.80;99.90;;;;;;4982301;28;20186;-83
2022/01/26 08:54:38;;;;;;;73.03;24.03;;;-0.70;99.90;;;;;;4992279;28;20244;-82
2022/01/26 08:57:04;;;;;;;42.80;15.93;;;-0.70;99.90;;;;;;5004624;28;20350;-81
2022/01/26 08:59:29;;;;;;;46.17;15.67;;;-0.70;99.90;;;;;;5010010;28;20194;-81
2022/01/26 09:01:55;;;;;;;42.73;16.73;;;-0.80;99.90;;;;;;5002806;28;20254;-84
2022/01/26 09:04:20;;;;;;;37.23;13.10;;;-0.80;99.90;;;;;;5009533;28;20186;-85
2022/01/26 09:06:58;;;;;;;52.30;18.77;;;;;;;;;;4999888;28;20784;-83
2022/01/26 09:09:27;;;;;;;50.03;18.63;;;-0.80;99.90;;;;;;4998044;28;20206;-83
2022/01/26 09:11:55;;;;;;;60.30;18.77;;;-0.80;99.90;;;;;;4996500;28;20889;-84
2022/01/26 09:14:23;;;;;;;75.15;21.27;;;-0.80;99.90;;;;;;4996501;28;20211;-84
2022/01/26 09:16:52;;;;;;;55.70;20.02;;;-0.70;99.90;;;;;;4995342;28;20199;-84
2022/01/26 09:21:51;;;;;;;62.45;21.38;;;-0.60;99.90;;;;;;5003058;28;20194;-83
2022/01/26 09:24:16;;;;;;;54.93;20.20;;;-0.50;99.90;;;;;;4990256;28;20206;-83
2022/01/26 09:26:42;;;;;;;83.77;23.00;;;;;;;;;;4990436;28;21970;-82
2022/01/26 09:29:08;;;;;;;85.67;23.90;;;;;;;;;;4988553;28;20268;-84
2022/01/26 09:31:34;;;;;;;72.83;22.00;;;;;;;;;;4992406;28;20450;-84
2022/01/26 09:34:00;;;;;;;71.63;19.73;;;;;;;;;;4997037;28;20425;-84
2022/01/26 09:36:27;;;;;;;53.60;19.43;;;;;;;;;;5020619;28;20717;-82
2022/01/26 09:38:53;;;;;;;81.65;22.15;;;;;;;;;;4996989;28;20448;-81
2022/01/26 09:41:22;;;;;;;76.35;22.27;;;-0.60;99.90;;;;;;5023363;28;20190;-85
2022/01/26 09:43:49;;;;;;;71.97;25.23;;;-0.50;99.90;;;;;;4987834;28;20273;-83
2022/01/26 09:46:15;;;;;;;75.60;21.08;;;;;;;;;;5006261;28;20185;-85
2022/01/26 09:48:42;;;;;;;68.70;22.38;;;-0.50;99.90;;;;;;4997940;28;20218;-84
2022/01/26 09:51:12;;;;;;;58.00;23.65;;;-0.30;99.90;;;;;;4995984;28;20175;-83
2022/01/26 09:53:38;;;;;;;56.78;21.73;;;;;;;;;;4992675;28;20182;-82
2022/01/26 09:56:04;;;;;;;50.97;20.65;;;-0.10;99.90;;;;;;5007968;28;20255;-83
2022/01/26 09:58:30;;;;;;;49.88;17.02;;;;;;;;;;5001152;28;20207;-84
2022/01/26 10:01:00;;;;;;;53.65;17.02;;;-0.20;99.90;;;;;;5007267;28;20184;-82
2022/01/26 10:03:35;;;;;;;52.78;17.40;;;;;;;;;;5009801;28;20194;-85
2022/01/26 10:06:03;;;;;;;73.80;22.85;;;-0.50;99.90;;;;;;5001815;28;20189;-84
2022/01/26 10:08:56;;;;;;;63.55;22.15;;;-0.40;99.90;;;;;;5003025;28;20848;-84
2022/01/26 10:19:25;;;;;;;53.45;19.75;;;-0.40;99.90;;;;;;5020987;28;20179;-84
2022/01/26 10:21:52;;;;;;;52.80;19.77;;;-0.50;99.90;;;;;;4984693;28;20194;-82
2022/01/26 10:24:20;;;;;;;57.83;18.92;;;0.90;99.90;;;;;;5001090;28;20178;-83
2022/01/26 10:26:56;;;;;;;46.60;15.88;;;-0.50;99.90;;;;;;4996665;28;20206;-83
2022/01/26 10:29:22;;;;;;;46.58;18.02;;;-0.50;99.90;;;;;;5000865;28;20701;-84
2022/01/26 10:31:49;;;;;;;45.75;16.80;;;;;;;;;;5000362;28;20187;-82
2022/01/26 10:34:23;;;;;;;60.45;20.88;;;-0.50;99.90;;;;;;4999820;28;20186;-83
2022/01/26 10:36:54;;;;;;;53.35;17.58;;;-0.60;99.90;;;;;;4994766;28;20203;-82
2022/01/26 10:39:26;;;;;;;86.90;22.95;;;-0.60;99.90;;;;;;4995223;28;20553;-82
2022/01/26 10:41:55;;;;;;;64.57;19.00;;;-0.60;99.90;;;;;;5013354;28;20186;-83
2022/01/26 10:44:46;;;;;;;84.65;21.52;;;-0.70;99.90;;;;;;4992365;28;20190;-81
2022/01/26 10:47:12;;;;;;;56.38;18.17;;;-0.70;99.90;;;;;;4999084;28;20213;-84
2022/01/26 10:52:37;;;;;;;92.18;23.23;;;-0.70;99.90;;;;;;4999015;28;20261;-84
2022/01/26 10:55:06;;;;;;;54.83;16.25;;;-0.70;99.90;;;;;;5000275;28;20615;-85
2022/01/26 10:57:33;;;;;;;76.90;19.67;;;-0.90;99.90;;;;;;4998731;28;20676;-84
2022/01/26 11:00:01;;;;;;;56.47;17.55;;;-0.90;99.90;;;;;;4994502;28;20278;-84
2022/01/26 11:02:31;;;;;;;54.22;18.75;;;-1.00;99.90;;;;;;4996817;28;20175;-84
2022/01/26 11:04:56;;;;;;;61.78;19.63;;;-0.90;99.90;;;;;;4998836;28;20178;-84
2022/01/26 11:07:33;;;;;;;55.23;20.70;;;-0.90;99.90;;;;;;5002801;28;20267;-84
2022/01/26 11:10:03;;;;;;;52.50;19.00;;;-1.00;99.90;;;;;;5006921;28;20225;-84
2022/01/26 11:12:30;;;;;;;62.42;20.15;;;-0.90;99.90;;;;;;4996770;28;20922;-85
2022/01/26 11:15:21;;;;;;;42.55;15.13;;;-0.90;99.90;;;;;;4999360;28;20654;-84
2022/01/26 11:17:47;;;;;;;61.67;20.55;;;-0.80;99.90;;;;;;5001740;28;20202;-84
2022/01/26 11:20:30;;;;;;;46.87;17.30;;;-0.80;99.90;;;;;;4991630;28;20178;-84
2022/01/26 11:23:00;;;;;;;53.35;22.17;;;-0.80;99.90;;;;;;5004413;28;20163;-84
2022/01/26 11:25:38;;;;;;;59.42;19.58;;;-0.90;99.90;;;;;;5016789;28;20224;-84
2022/01/26 11:28:20;;;;;;;62.58;21.90;;;-0.80;99.90;;;;;;5003923;28;20338;-84
2022/01/26 11:30:46;;;;;;;60.35;24.42;;;;;;;;;;5022768;28;20178;-84
2022/01/26 11:33:15;;;;;;;41.83;16.13;;;-0.70;99.90;;;;;;5003948;28;20647;-84
2022/01/26 11:35:45;;;;;;;57.22;20.00;;;-0.70;99.90;;;;;;5003138;28;20174;-85
2022/01/26 11:46:34;;;;;;;59.05;20.40;;;-0.60;99.90;;;;;;5003045;28;20281;-84
2022/01/26 11:49:11;;;;;;;57.25;18.35;;;-0.70;99.90;;;;;;5005292;28;20202;-85
2022/01/26 11:51:46;;;;;;;47.83;16.42;;;-0.70;99.90;;;;;;5003200;28;21202;-84
2022/01/26 11:54:14;;;;;;;73.68;21.17;;;-0.70;99.90;;;;;;5000914;28;20189;-84
2022/01/26 11:56:40;;;;;;;68.57;19.40;;;;;;;;;;5006310;28;20230;-84
2022/01/26 11:59:18;;;;;;;41.25;15.50;;;-0.70;99.90;;;;;;5003540;28;20223;-85
2022/01/26 12:01:49;;;;;;;44.00;14.98;;;;;;;;;;4990814;28;20179;-85
2022/01/26 12:04:17;;;;;;;42.13;14.77;;;-0.60;99.90;;;;;;5002062;28;20247;-85
2022/01/26 12:06:50;;;;;;;42.95;16.52;;;-0.60;99.90;;;;;;5001272;28;20344;-84
2022/01/26 12:09:17;;;;;;;29.02;13.05;;;-0.60;99.90;;;;;;4990558;28;20627;-84
2022/01/26 12:11:50;;;;;;;21.17;10.18;;;-0.70;99.90;;;;;;5007690;28;20186;-84
2022/01/26 12:14:20;;;;;;;30.42;11.80;;;-0.70;99.90;;;;;;5005325;28;20182;-84
2022/01/26 12:16:48;;;;;;;32.35;11.43;;;-0.60;99.90;;;;;;5000484;28;20441;-84
2022/01/26 12:19:35;;;;;;;47.13;16.70;;;-0.60;99.90;;;;;;4998698;28;20228;-84
2022/01/26 12:36:24;;;;;;;28.10;11.40;;;-0.50;99.90;;;;;;5001047;28;20171;-85
2022/01/26 12:39:02;;;;;;;28.98;13.27;;;-0.50;99.90;;;;;;4999174;28;21815;-83
2022/01/26 12:41:33;;;;;;;32.55;10.50;;;-0.50;99.90;;;;;;4997300;28;20248;-84
2022/01/26 12:44:11;;;;;;;35.60;13.93;;;-0.50;99.90;;;;;;4997031;28;20170;-84
2022/01/26 12:46:38;;;;;;;27.27;12.68;;;-0.30;99.90;;;;;;5000207;28;20547;-84
2022/01/26 12:49:08;;;;;;;25.98;11.13;;;-0.30;99.90;;;;;;4987933;28;20314;-84
2022/01/26 12:51:48;;;;;;;34.60;12.05;;;-0.40;99.90;;;;;;4995072;28;20182;-84
2022/01/26 12:54:15;;;;;;;44.85;13.63;;;0.70;99.90;;;;;;4996299;28;20187;-84
2022/01/26 12:56:41;;;;;;;33.95;14.10;;;;;;;;;;4993346;28;20254;-84
2022/01/26 12:59:09;;;;;;;36.40;14.88;;;-0.30;99.90;;;;;;5028381;28;20189;-84
2022/01/26 13:01:36;;;;;;;42.55;16.33;;;-0.20;99.90;;;;;;5005598;27;21534;-85
2022/01/26 13:04:06;;;;;;;36.10;13.32;;;-0.20;99.90;;;;;;5001463;28;20198;-84
2022/01/26 13:06:35;;;;;;;40.33;15.50;;;-0.40;99.90;;;;;;4997061;28;20195;-83
2022/01/26 13:09:14;;;;;;;22.15;8.93;;;-0.30;99.90;;;;;;4994128;28;20286;-84
2022/01/26 13:11:40;;;;;;;31.35;13.27;;;;;;;;;;5000998;28;20184;-85
2022/01/26 13:14:12;;;;;;;35.67;12.60;;;;;;;;;;5010069;28;20277;-84
2022/01/26 13:16:40;;;;;;;39.67;16.20;;;-0.30;99.90;;;;;;4994685;28;20178;-85
2022/01/26 13:27:52;;;;;;;30.17;13.43;;;-0.60;99.90;;;;;;5002036;28;20576;-85
2022/01/26 13:30:34;;;;;;;42.17;16.15;;;-0.60;99.90;;;;;;5005949;28;20197;-85
2022/01/26 13:33:31;;;;;;;28.08;11.15;;;-0.50;99.90;;;;;;5011755;27;20229;-85
2022/01/26 13:36:23;;;;;;;37.45;11.93;;;-0.60;99.90;;;;;;5009062;28;20185;-84
2022/01/26 13:39:10;;;;;;;30.58;13.32;;;;;;;;;;5009004;28;20813;-85
2022/01/26 13:41:45;;;;;;;41.10;13.70;;;-0.60;99.90;;;;;;5008448;28;20174;-84
2022/01/26 14:00:41;;;;;;;36.45;14.05;;;-0.60;99.90;;;;;;5009857;28;20190;-84
2022/01/26 14:03:09;;;;;;;17.85;9.25;;;-0.60;99.90;;;;;;5010904;28;20183;-85
2022/01/26 14:05:37;;;;;;;61.55;15.85;;;-0.60;99.90;;;;;;5000491;28;20272;-85
2022/01/26 14:08:03;;;;;;;33.85;13.68;;;-0.60;99.90;;;;;;5003907;28;20767;-85
2022/01/26 14:10:29;;;;;;;33.87;15.57;;;;;;;;;;5009330;28;20237;-85
2022/01/26 14:12:54;;;;;;;26.88;12.77;;;-0.60;99.90;;;;;;4999632;28;20778;-84
2022/01/26 14:15:35;;;;;;;32.97;13.60;;;-0.60;99.90;;;;;;5016607;28;20174;-85
2022/01/26 14:18:10;;;;;;;29.13;11.07;;;-0.50;99.90;;;;;;5022983;28;20194;-85
2022/01/26 14:20:51;;;;;;;30.30;13.18;;;;;;;;;;5026404;28;20177;-85
2022/01/26 14:25:46;;;;;;;29.73;11.30;;;-0.40;99.90;;;;;;5009411;28;20213;-86
2022/01/26 14:28:15;;;;;;;31.17;12.82;;;;;;;;;;5003193;28;20457;-85
2022/01/26 14:33:57;;;;;;;30.95;13.15;;;-0.50;99.90;;;;;;5032148;28;20190;-85
2022/01/26 14:36:39;;;;;;;34.30;14.68;;;;;;;;;;4999878;28;20694;-85
2022/01/26 14:56:14;;;;;;;31.30;13.15;;;-0.50;99.90;;;;;;5017314;28;20213;-85
2022/01/26 15:10:13;;;;;;;49.20;18.38;;;-0.50;99.90;;;;;;5007617;28;20213;-85
2022/01/26 15:31:49;;;;;;;37.83;17.92;;;-0.40;99.90;;;;;;4999707;28;20218;-85
2022/01/26 15:34:05;;;;;;;34.33;16.52;;;-0.40;99.90;;;;;;5004761;28;20789;-84
2022/01/26 15:40:08;;;;;;;35.85;13.48;;;-0.40;99.90;;;;;;5004313;28;20179;-86
2022/01/26 15:42:32;;;;;;;32.92;15.20;;;-0.40;99.90;;;;;;5018142;28;20201;-85
2022/01/26 15:52:59;;;;;;;36.53;14.70;;;-0.50;99.90;;;;;;5001880;28;20261;-86
2022/01/26 15:58:16;;;;;;;33.45;17.17;;;-0.40;99.90;;;;;;5001518;28;20221;-85
2022/01/26 16:06:19;;;;;;;41.25;14.95;;;-0.50;99.90;;;;;;5006099;28;20182;-85
2022/01/26 16:17:29;;;;;;;23.48;10.35;;;-0.50;99.90;;;;;;4999267;28;20351;-86
2022/01/26 16:36:56;;;;;;;29.90;13.13;;;;;;;;;;5021962;28;20427;-82
2022/01/26 16:39:21;;;;;;;30.98;11.25;;;-0.50;99.90;;;;;;5004395;28;20309;-85
2022/01/26 17:12:32;;;;;;;31.73;13.82;;;;;;;;;;4999244;28;20895;-86
2022/01/26 18:16:57;;;;;;;46.25;16.92;;;-0.70;99.90;;;;;;5004480;28;20282;-85
2022/01/26 18:33:13;;;;;;;46.47;16.65;;;-0.80;99.90;;;;;;5001338;28;21339;-85
2022/01/26 18:49:20;;;;;;;29.77;13.15;;;-0.80;99.90;;;;;;5003963;28;20237;-84
2022/01/26 18:51:48;;;;;;;38.72;14.50;;;;;;;;;;4996279;28;20190;-84
2022/01/26 18:54:15;;;;;;;28.23;11.30;;;-0.80;99.90;;;;;;5004507;28;20837;-85
2022/01/26 18:56:42;;;;;;;39.88;14.15;;;-0.90;99.90;;;;;;4999686;28;20183;-85
2022/01/26 18:59:10;;;;;;;30.58;12.43;;;-0.90;99.90;;;;;;4995707;28;20206;-85
2022/01/26 19:01:36;;;;;;;33.67;14.40;;;-0.90;99.90;;;;;;5006440;28;20236;-84
2022/01/26 19:04:02;;;;;;;27.73;11.90;;;-0.90;99.90;;;;;;5002447;28;20174;-85
2022/01/26 19:06:28;;;;;;;34.43;14.60;;;-0.90;99.90;;;;;;4996327;28;20190;-84
2022/01/26 19:08:54;;;;;;;42.70;16.63;;;-0.90;99.90;;;;;;4990156;28;20508;-85
2022/01/26 19:11:21;;;;;;;35.78;14.68;;;;;;;;;;4999244;28;20261;-85
2022/01/26 19:13:48;;;;;;;41.50;15.25;;;;;;;;;;5000333;28;20170;-85